KLGB/LGB METAR and TAF weather

Enter ICAO airport designator
Station Type Date Time Source
KLGB METAR 2020/07/05 02:53 UTC NOAA

KLGB 050253Z 30008KT 10SM CLR 23/14 A2992 RMK AO2 SLP131 T02280139 55002


Station Type Date Time Source
KLGB Decoded METAR 2020/07/05 02:53 UTC NOAA

LONG BEACH AIRPORT, CA, United States (KLGB) 33-49N 118-09W 10M
Jul 04, 2020 - 10:53 PM EDT / 2020.07.05 0253 UTC
Wind: from the WNW (300 degrees) at 9 MPH (8 KT):0
Visibility: 10 mile(s):0
Sky conditions: clear
Temperature: 73.0 F (22.8 C)
Dew Point: 57.0 F (13.9 C)
Relative Humidity: 57%
Pressure (altimeter): 29.92 in. Hg (1013 hPa)
Pressure tendency: 0.01 inches (0.2 hPa) lower than three hours ago
ob: KLGB 050253Z 30008KT 10SM CLR 23/14 A2992 RMK AO2 SLP131 T02280139 55002
cycle: 3

Station Type Date Time Source
KLGB TAF 2020/07/04 18:24 UTC NOAA

TAF KLGB 041722Z 0418/0518 19008KT P6SM SKC
FM042300 30010KT P6SM SKC
FM050500 VRB03KT P6SM SKC
FM051100 VRB03KT 3SM BR BKN006
FM051600 VRB03KT P6SM SKC

Example: see airport list